Time;durP1;ratioP1;P1;durP2;ratioP2;P2;SDS_P1;SDS_P2;PMS_P1;PMS_P2;Temp;Humidity;BMP_temperature;BMP_pressure;BME280_temperature;BME280_humidity;BME280_pressure;Samples;Min_cycle;Max_cycle;Signal;HPM_P1;HPM_P2
2023/05/23 00:00:10;;;;;;;1.50;1.00;;;16.30;98.20;;;;;;5053428;28;20544;-80
2023/05/23 00:02:37;;;;;;;1.47;0.90;;;16.30;98.20;;;;;;5058110;28;20909;-80
2023/05/23 00:05:06;;;;;;;1.50;0.90;;;16.30;98.20;;;;;;5064685;28;20536;-79
2023/05/23 00:07:34;;;;;;;1.50;1.00;;;16.30;98.20;;;;;;5057959;28;20485;-79
2023/05/23 00:10:00;;;;;;;1.50;1.00;;;16.20;98.20;;;;;;5056822;28;20466;-79
2023/05/23 00:12:28;;;;;;;1.50;1.00;;;16.20;98.20;;;;;;5053542;28;20458;-79
2023/05/23 00:14:55;;;;;;;1.50;1.00;;;16.20;98.20;;;;;;5054346;28;20468;-79
2023/05/23 00:17:24;;;;;;;1.50;1.00;;;16.10;98.20;;;;;;5060817;28;20549;-79
2023/05/23 00:19:51;;;;;;;1.50;1.00;;;16.20;98.20;;;;;;5063901;28;20458;-79
2023/05/23 00:22:18;;;;;;;1.50;1.00;;;16.20;98.20;;;;;;5060909;28;20470;-80
2023/05/23 00:24:46;;;;;;;1.50;0.90;;;16.20;98.20;;;;;;5053123;28;20457;-79
2023/05/23 00:27:13;;;;;;;1.47;0.90;;;16.20;98.20;;;;;;5071699;28;20491;-78
2023/05/23 00:29:40;;;;;;;1.47;0.90;;;16.30;98.20;;;;;;5070512;28;20547;-80
2023/05/23 00:32:06;;;;;;;1.50;1.00;;;16.30;98.20;;;;;;5052653;28;20464;-79
2023/05/23 00:34:35;;;;;;;1.60;1.37;;;16.40;98.20;;;;;;5053953;28;20481;-79
2023/05/23 00:37:02;;;;;;;1.50;1.00;;;16.40;98.20;;;;;;5051083;28;20559;-79
2023/05/23 00:39:28;;;;;;;1.50;1.00;;;16.40;98.20;;;;;;5055921;28;20458;-79
2023/05/23 00:41:56;;;;;;;1.47;1.00;;;16.50;98.20;;;;;;5057807;28;20458;-79
2023/05/23 00:44:23;;;;;;;1.50;0.90;;;16.50;98.20;;;;;;5061561;28;20464;-79
2023/05/23 00:46:54;;;;;;;1.50;0.97;;;16.50;98.20;;;;;;5057641;28;20494;-79
2023/05/23 00:49:21;;;;;;;1.50;1.00;;;16.50;98.20;;;;;;5056019;28;20459;-79
2023/05/23 00:51:49;;;;;;;1.50;0.90;;;16.50;98.20;;;;;;5060013;28;20948;-79
2023/05/23 00:54:18;;;;;;;1.50;1.00;;;16.50;98.20;;;;;;5060860;28;20991;-80
2023/05/23 00:56:45;;;;;;;1.50;1.00;;;16.50;98.20;;;;;;5060872;28;20824;-81
2023/05/23 00:59:14;;;;;;;1.50;1.00;;;16.50;98.20;;;;;;5057678;28;20873;-80
2023/05/23 01:01:43;;;;;;;1.50;0.93;;;16.50;98.20;;;;;;5054032;28;20476;-81
2023/05/23 01:04:10;;;;;;;1.43;0.90;;;16.50;98.20;;;;;;5053721;28;20457;-80
2023/05/23 01:06:37;;;;;;;1.50;1.00;;;16.50;98.20;;;;;;5063308;28;20478;-81
2023/05/23 01:09:04;;;;;;;1.50;1.00;;;16.50;98.20;;;;;;5058640;28;20872;-80
2023/05/23 01:11:40;;;;;;;1.50;1.00;;;16.50;98.20;;;;;;5053659;28;20461;-81
2023/05/23 01:14:15;;;;;;;1.50;0.90;;;16.50;98.20;;;;;;5061644;28;20489;-80
2023/05/23 01:16:48;;;;;;;1.50;1.00;;;16.50;98.20;;;;;;5064015;28;20560;-82
2023/05/23 01:19:47;;;;;;;1.50;0.90;;;16.40;98.20;;;;;;5054336;28;20458;-81
2023/05/23 01:22:22;;;;;;;1.47;0.97;;;16.40;98.20;;;;;;5056865;28;20461;-81
2023/05/23 01:24:57;;;;;;;2.57;1.47;;;16.40;98.20;;;;;;5058166;28;20461;-81
2023/05/23 01:27:41;;;;;;;1.50;0.90;;;16.40;98.20;;;;;;5048250;28;21010;-81
2023/05/23 01:30:11;;;;;;;1.43;1.00;;;16.40;98.20;;;;;;5048934;28;20461;-82
2023/05/23 01:32:39;;;;;;;1.50;0.90;;;16.40;98.20;;;;;;5060680;28;20457;-81
2023/05/23 01:35:08;;;;;;;1.47;0.93;;;16.40;98.20;;;;;;5052740;28;20482;-81
2023/05/23 01:37:35;;;;;;;1.50;1.00;;;16.40;98.20;;;;;;5051939;28;20830;-81
2023/05/23 01:40:02;;;;;;;1.47;1.00;;;16.40;98.20;;;;;;5056972;28;20835;-82
2023/05/23 01:42:28;;;;;;;1.50;1.00;;;16.40;98.20;;;;;;5055685;28;20481;-80
2023/05/23 01:44:58;;;;;;;1.50;0.90;;;16.40;98.20;;;;;;5054380;28;20952;-80
2023/05/23 01:47:26;;;;;;;1.50;1.10;;;16.40;98.20;;;;;;5052760;28;20459;-80
2023/05/23 01:49:54;;;;;;;1.50;1.00;;;16.40;98.20;;;;;;5056183;28;20456;-80
2023/05/23 01:52:22;;;;;;;1.47;1.00;;;16.40;98.20;;;;;;5056360;28;20458;-79
2023/05/23 01:54:50;;;;;;;1.50;0.90;;;16.40;98.20;;;;;;5056953;28;20504;-80
2023/05/23 01:57:18;;;;;;;1.50;0.90;;;16.40;98.20;;;;;;5068571;28;20461;-79
2023/05/23 01:59:44;;;;;;;1.50;1.00;;;16.30;98.20;;;;;;5051953;28;20462;-80
2023/05/23 02:02:12;;;;;;;1.47;0.90;;;16.30;98.20;;;;;;5056680;28;20487;-80
2023/05/23 02:04:39;;;;;;;1.50;0.90;;;16.30;98.20;;;;;;5056878;28;20460;-81
2023/05/23 02:07:06;;;;;;;1.50;1.00;;;16.40;98.20;;;;;;5052958;28;20839;-80
2023/05/23 02:09:33;;;;;;;1.50;0.90;;;16.30;98.20;;;;;;5054700;28;20642;-79
2023/05/23 02:12:00;;;;;;;3.00;1.67;;;16.30;98.20;;;;;;5055574;28;20470;-80
2023/05/23 02:14:27;;;;;;;1.43;0.90;;;16.30;98.20;;;;;;5055178;28;20486;-80
2023/05/23 02:16:54;;;;;;;1.47;0.90;;;16.30;98.20;;;;;;5056044;28;20560;-80
2023/05/23 02:19:22;;;;;;;1.50;0.90;;;16.30;98.20;;;;;;5055850;28;20833;-81
2023/05/23 02:21:48;;;;;;;1.40;0.93;;;16.30;98.20;;;;;;5055410;28;20462;-80
2023/05/23 02:24:15;;;;;;;1.47;0.90;;;16.30;98.20;;;;;;5053915;28;21011;-81
2023/05/23 02:26:42;;;;;;;1.47;1.00;;;16.30;98.20;;;;;;5054883;28;20488;-79
2023/05/23 02:29:09;;;;;;;1.50;0.93;;;16.30;98.20;;;;;;5055893;28;20553;-80
2023/05/23 02:31:36;;;;;;;1.47;0.90;;;16.30;98.20;;;;;;5055215;28;20501;-80
2023/05/23 02:34:03;;;;;;;1.50;1.00;;;16.30;98.20;;;;;;5050573;28;20855;-80
2023/05/23 02:36:32;;;;;;;1.50;1.00;;;16.30;98.20;;;;;;5057744;28;20488;-80
2023/05/23 02:38:58;;;;;;;2.43;2.00;;;16.30;98.20;;;;;;5056545;28;20472;-80
2023/05/23 02:41:25;;;;;;;1.50;0.90;;;16.30;98.20;;;;;;5057671;28;20467;-80
2023/05/23 02:43:52;;;;;;;1.63;1.27;;;16.30;98.20;;;;;;5065744;28;20457;-80
2023/05/23 02:46:19;;;;;;;1.47;1.00;;;16.30;98.20;;;;;;5065691;28;21037;-80
2023/05/23 02:48:46;;;;;;;1.50;1.00;;;16.30;98.20;;;;;;5054849;28;20957;-80
2023/05/23 02:51:13;;;;;;;1.50;0.90;;;16.30;98.20;;;;;;5054084;28;20466;-80
2023/05/23 02:53:41;;;;;;;1.50;1.00;;;16.30;98.20;;;;;;5056919;28;20917;-79
2023/05/23 02:56:08;;;;;;;1.60;1.30;;;16.30;98.20;;;;;;5056211;28;20478;-80
2023/05/23 02:58:35;;;;;;;1.50;0.90;;;16.30;98.20;;;;;;5057929;28;20459;-79
2023/05/23 03:01:02;;;;;;;1.50;1.10;;;16.30;98.20;;;;;;5051974;28;20520;-80
2023/05/23 03:03:30;;;;;;;1.50;0.93;;;16.30;98.20;;;;;;5055689;28;20454;-80
2023/05/23 03:05:57;;;;;;;1.50;0.90;;;16.30;98.20;;;;;;5052419;28;20479;-80
2023/05/23 03:08:24;;;;;;;1.50;1.00;;;16.30;98.20;;;;;;5054256;28;20645;-80
2023/05/23 03:10:52;;;;;;;1.47;0.90;;;16.30;98.20;;;;;;5052709;28;20460;-79
2023/05/23 03:13:19;;;;;;;1.47;1.00;;;16.30;98.20;;;;;;5053098;28;20564;-80
2023/05/23 03:15:46;;;;;;;1.50;0.90;;;16.20;98.20;;;;;;5054062;28;20565;-79
2023/05/23 03:18:13;;;;;;;1.50;0.90;;;16.20;98.20;;;;;;5054044;28;20531;-79
2023/05/23 03:20:39;;;;;;;1.47;0.90;;;16.20;98.20;;;;;;5054168;28;20456;-80
2023/05/23 03:23:06;;;;;;;1.50;0.90;;;16.20;98.20;;;;;;5054153;28;20454;-80
2023/05/23 03:25:33;;;;;;;1.50;1.00;;;16.20;98.20;;;;;;5053509;28;20532;-79
2023/05/23 03:28:01;;;;;;;1.50;1.00;;;16.20;98.20;;;;;;5055019;28;20462;-79
2023/05/23 03:30:28;;;;;;;1.50;1.10;;;16.10;98.20;;;;;;5053014;28;20476;-81
2023/05/23 03:32:55;;;;;;;1.50;0.90;;;16.10;98.20;;;;;;5053950;28;20952;-79
2023/05/23 03:35:21;;;;;;;1.47;0.90;;;16.00;98.20;;;;;;5055152;28;20878;-80
2023/05/23 03:37:48;;;;;;;1.43;0.90;;;16.00;98.20;;;;;;5055408;28;20550;-79
2023/05/23 03:40:15;;;;;;;1.50;0.90;;;16.00;98.20;;;;;;5053470;28;20824;-80
2023/05/23 03:42:42;;;;;;;1.50;0.97;;;16.00;98.20;;;;;;5053432;28;20466;-80
2023/05/23 03:45:11;;;;;;;1.50;1.00;;;16.00;98.20;;;;;;5051631;28;20491;-80
2023/05/23 03:47:37;;;;;;;1.50;1.00;;;16.00;98.20;;;;;;5053548;28;20457;-80
2023/05/23 03:50:05;;;;;;;1.50;1.00;;;16.00;98.20;;;;;;5055397;28;20501;-78
2023/05/23 03:52:32;;;;;;;1.50;0.90;;;16.00;98.20;;;;;;5053482;28;20457;-80
2023/05/23 03:54:58;;;;;;;1.50;1.00;;;15.90;98.20;;;;;;5056033;28;20528;-81
2023/05/23 03:57:25;;;;;;;1.50;1.00;;;15.90;98.20;;;;;;5057292;28;20857;-81
2023/05/23 03:59:52;;;;;;;1.50;0.90;;;15.90;98.20;;;;;;5059064;28;21412;-81
2023/05/23 04:02:20;;;;;;;1.50;1.00;;;15.90;98.20;;;;;;5058048;28;20466;-81
2023/05/23 04:04:47;;;;;;;1.47;0.90;;;15.90;98.20;;;;;;5058157;28;20489;-81
2023/05/23 04:07:14;;;;;;;1.47;0.90;;;15.90;98.20;;;;;;5056518;28;20477;-81
2023/05/23 04:09:41;;;;;;;1.50;0.93;;;15.90;98.20;;;;;;5056612;28;20462;-82
2023/05/23 04:12:09;;;;;;;1.50;1.00;;;15.90;98.20;;;;;;5055108;28;20469;-81
2023/05/23 04:14:36;;;;;;;1.50;0.93;;;15.90;98.20;;;;;;5057150;28;20559;-81
2023/05/23 04:17:02;;;;;;;1.43;1.00;;;15.90;98.20;;;;;;5059225;28;20485;-82
2023/05/23 04:19:31;;;;;;;1.50;0.90;;;15.90;98.20;;;;;;5061139;28;20466;-81
2023/05/23 04:21:57;;;;;;;1.60;1.30;;;15.90;98.20;;;;;;5060464;28;20472;-81
2023/05/23 04:24:24;;;;;;;1.50;1.10;;;15.90;98.20;;;;;;5058336;28;20462;-82
2023/05/23 04:26:51;;;;;;;1.47;0.90;;;15.90;98.20;;;;;;5060039;28;20539;-80
2023/05/23 04:29:19;;;;;;;1.50;1.20;;;15.90;98.20;;;;;;5065205;28;20462;-81
2023/05/23 04:31:46;;;;;;;1.50;1.00;;;15.90;98.20;;;;;;5064021;28;20469;-81
2023/05/23 04:34:13;;;;;;;1.50;1.00;;;16.00;98.20;;;;;;5064928;28;20482;-81
2023/05/23 04:36:43;;;;;;;1.50;1.00;;;15.90;98.20;;;;;;5056005;28;20485;-81
2023/05/23 04:39:10;;;;;;;1.50;1.00;;;15.90;98.20;;;;;;5060443;28;20511;-80
2023/05/23 04:41:37;;;;;;;1.43;0.90;;;15.90;98.20;;;;;;5068695;28;20472;-80
2023/05/23 04:44:04;;;;;;;1.50;0.90;;;15.90;98.20;;;;;;5063926;28;20839;-81
2023/05/23 04:46:31;;;;;;;1.47;0.90;;;15.90;98.20;;;;;;5064641;28;20492;-81
2023/05/23 04:48:59;;;;;;;1.47;0.97;;;15.90;98.20;;;;;;5069083;28;20454;-80
2023/05/23 04:51:26;;;;;;;1.50;1.00;;;15.90;98.20;;;;;;5057716;28;21049;-81
2023/05/23 04:53:54;;;;;;;1.43;0.90;;;15.90;98.20;;;;;;5071288;28;20983;-81
2023/05/23 04:56:21;;;;;;;1.47;0.90;;;15.80;98.20;;;;;;5062568;28;20500;-81
2023/05/23 04:58:48;;;;;;;1.47;0.90;;;15.90;98.20;;;;;;5060333;28;20462;-79
2023/05/23 05:01:15;;;;;;;1.47;1.00;;;15.80;98.20;;;;;;5069285;28;20458;-81
2023/05/23 05:03:41;;;;;;;1.53;1.23;;;15.80;98.20;;;;;;5064632;28;20470;-79
2023/05/23 05:06:08;;;;;;;1.50;1.00;;;15.80;98.20;;;;;;5070998;28;20467;-80
2023/05/23 05:08:36;;;;;;;1.50;0.90;;;15.80;98.20;;;;;;5075004;28;20458;-79
2023/05/23 05:11:04;;;;;;;1.50;0.90;;;15.80;98.20;;;;;;5055079;28;20458;-77
2023/05/23 05:13:30;;;;;;;1.47;0.90;;;15.80;98.20;;;;;;5052873;28;20568;-78
2023/05/23 05:15:57;;;;;;;1.50;0.90;;;15.80;98.20;;;;;;5053574;28;20559;-78
2023/05/23 05:18:25;;;;;;;1.43;0.90;;;15.80;98.20;;;;;;5057065;28;20454;-79
2023/05/23 05:20:52;;;;;;;1.47;1.00;;;15.80;98.20;;;;;;5057036;28;20459;-79
2023/05/23 05:23:19;;;;;;;1.47;0.97;;;15.80;98.20;;;;;;5055603;28;20462;-79
2023/05/23 05:25:46;;;;;;;1.47;1.00;;;15.80;98.20;;;;;;5054436;28;20554;-80
2023/05/23 05:28:14;;;;;;;1.70;1.60;;;15.80;98.20;;;;;;5059000;28;20874;-79
2023/05/23 05:30:41;;;;;;;1.43;0.90;;;15.80;98.20;;;;;;5056999;28;20482;-80
2023/05/23 05:33:09;;;;;;;1.50;1.00;;;15.80;98.20;;;;;;5062644;28;20454;-79
2023/05/23 05:35:37;;;;;;;1.47;1.00;;;15.80;98.20;;;;;;5059198;28;20531;-79
2023/05/23 05:38:04;;;;;;;1.60;1.40;;;15.80;98.20;;;;;;5059253;28;20464;-81
2023/05/23 05:40:31;;;;;;;1.47;0.90;;;15.80;98.20;;;;;;5058846;28;20462;-79
2023/05/23 05:42:58;;;;;;;1.50;1.00;;;15.80;98.20;;;;;;5057838;28;21094;-80
2023/05/23 05:45:26;;;;;;;1.40;0.90;;;15.80;98.20;;;;;;5058602;28;20490;-80
2023/05/23 05:47:53;;;;;;;1.50;0.90;;;15.80;98.20;;;;;;5056813;28;20825;-79
2023/05/23 05:50:20;;;;;;;1.47;1.00;;;15.80;98.20;;;;;;5057922;28;20458;-80
2023/05/23 05:52:46;;;;;;;2.10;1.63;;;15.80;98.20;;;;;;5055846;28;20492;-80
2023/05/23 05:55:14;;;;;;;1.50;0.90;;;15.90;98.20;;;;;;5057327;28;20500;-80
2023/05/23 05:57:41;;;;;;;1.43;0.90;;;15.90;98.20;;;;;;5056196;28;20471;-80
2023/05/23 06:00:13;;;;;;;1.50;1.00;;;15.90;98.20;;;;;;5058645;28;20458;-80
2023/05/23 06:02:42;;;;;;;1.50;1.00;;;15.90;98.20;;;;;;5059745;28;20976;-78
2023/05/23 06:05:11;;;;;;;1.47;1.00;;;15.90;98.20;;;;;;5055527;28;20474;-78
2023/05/23 06:07:38;;;;;;;1.43;0.90;;;15.90;98.20;;;;;;5052535;28;20489;-77
2023/05/23 06:10:05;;;;;;;1.50;0.90;;;15.90;98.20;;;;;;5051725;28;20520;-79
2023/05/23 06:12:32;;;;;;;1.50;1.00;;;15.80;98.20;;;;;;5059032;28;20458;-79
2023/05/23 06:14:59;;;;;;;1.47;0.90;;;15.80;98.20;;;;;;5054833;28;20861;-78
2023/05/23 06:17:26;;;;;;;1.50;1.00;;;15.90;98.20;;;;;;5053953;28;20462;-77
2023/05/23 06:19:54;;;;;;;1.47;0.90;;;15.80;98.20;;;;;;5054491;28;20471;-79
2023/05/23 06:22:21;;;;;;;1.47;1.00;;;15.80;98.20;;;;;;5056646;28;20966;-78
2023/05/23 06:24:48;;;;;;;1.50;1.00;;;15.80;98.20;;;;;;5054554;28;20462;-77
2023/05/23 06:27:14;;;;;;;1.50;1.00;;;15.90;98.20;;;;;;5054714;28;20470;-77
2023/05/23 06:29:41;;;;;;;1.47;0.90;;;15.80;98.20;;;;;;5050036;28;20465;-76
2023/05/23 06:32:08;;;;;;;1.50;0.90;;;15.80;98.20;;;;;;5052255;28;20477;-77
2023/05/23 06:34:35;;;;;;;1.43;0.90;;;15.80;98.20;;;;;;5049985;28;20648;-78
2023/05/23 06:37:03;;;;;;;1.50;0.97;;;15.90;98.20;;;;;;5050971;28;20493;-77
2023/05/23 06:39:31;;;;;;;1.60;1.37;;;15.90;98.20;;;;;;5054174;28;20474;-79
2023/05/23 06:41:57;;;;;;;1.47;1.00;;;16.00;98.20;;;;;;5062998;28;20648;-79
2023/05/23 06:44:24;;;;;;;1.50;0.90;;;16.00;98.20;;;;;;5040041;28;20459;-78
2023/05/23 06:46:56;;;;;;;1.47;0.90;;;16.00;98.20;;;;;;5050505;28;20524;-79
2023/05/23 06:49:23;;;;;;;1.50;0.90;;;16.10;98.20;;;;;;5057420;28;20458;-80
2023/05/23 06:51:50;;;;;;;1.50;0.90;;;16.10;98.20;;;;;;5054000;28;21069;-80
2023/05/23 06:54:18;;;;;;;1.43;0.90;;;16.20;98.20;;;;;;5052001;28;20565;-79
2023/05/23 06:56:45;;;;;;;1.50;1.00;;;16.20;98.20;;;;;;5050709;28;20490;-78
2023/05/23 06:59:12;;;;;;;1.47;0.90;;;16.20;98.20;;;;;;5058292;28;20466;-79
2023/05/23 07:01:39;;;;;;;1.50;0.90;;;16.20;98.20;;;;;;5054261;28;20493;-79
2023/05/23 07:04:06;;;;;;;1.50;1.00;;;16.30;98.20;;;;;;5054081;28;20473;-78
2023/05/23 07:06:34;;;;;;;1.50;1.00;;;16.40;98.20;;;;;;5051833;28;20534;-79
2023/05/23 07:09:01;;;;;;;1.47;0.90;;;16.40;98.20;;;;;;5052909;28;20463;-79
2023/05/23 07:11:29;;;;;;;1.50;0.90;;;16.40;98.20;;;;;;5054819;28;20450;-79
2023/05/23 07:13:56;;;;;;;1.50;1.10;;;16.50;98.20;;;;;;5055446;28;20465;-80
2023/05/23 07:16:23;;;;;;;1.47;1.00;;;16.60;98.20;;;;;;5055153;28;20500;-78
2023/05/23 07:18:50;;;;;;;1.50;0.90;;;16.50;98.20;;;;;;5055270;28;20462;-79
2023/05/23 07:21:17;;;;;;;1.47;0.90;;;16.50;98.20;;;;;;5059859;28;20450;-79
2023/05/23 07:23:44;;;;;;;1.50;0.90;;;16.60;98.20;;;;;;5070292;28;20445;-79
2023/05/23 07:26:11;;;;;;;1.50;1.00;;;16.60;98.20;;;;;;5063175;28;20477;-78
2023/05/23 07:28:39;;;;;;;1.50;1.00;;;16.60;98.20;;;;;;5051306;28;20473;-80
2023/05/23 07:31:08;;;;;;;1.50;0.90;;;16.60;98.20;;;;;;5051248;28;20480;-79
2023/05/23 07:33:34;;;;;;;1.60;1.10;;;16.70;98.20;;;;;;5059417;28;20464;-79
2023/05/23 07:36:01;;;;;;;1.50;0.90;;;16.80;98.20;;;;;;5055205;28;20490;-79
2023/05/23 07:38:28;;;;;;;1.50;0.90;;;16.80;98.20;;;;;;5052881;28;20466;-78
2023/05/23 07:40:55;;;;;;;1.50;0.90;;;16.90;98.20;;;;;;5052272;28;20462;-79
2023/05/23 07:43:22;;;;;;;1.50;1.00;;;16.90;98.20;;;;;;5060669;28;20539;-78
2023/05/23 07:45:50;;;;;;;2.63;1.93;;;16.90;98.20;;;;;;5050775;28;20493;-79
2023/05/23 07:48:17;;;;;;;1.50;0.90;;;16.90;98.20;;;;;;5052641;28;20493;-80
2023/05/23 07:50:44;;;;;;;1.50;1.00;;;16.80;98.20;;;;;;5048642;28;20848;-79
2023/05/23 07:53:10;;;;;;;1.50;0.90;;;16.80;98.20;;;;;;5050986;28;21188;-78
2023/05/23 07:55:37;;;;;;;1.50;1.00;;;16.80;98.20;;;;;;5049821;28;20919;-78
2023/05/23 07:58:04;;;;;;;1.50;1.00;;;16.80;98.20;;;;;;5051809;28;20468;-79
2023/05/23 08:00:32;;;;;;;1.50;0.90;;;16.80;98.20;;;;;;5050356;28;20552;-78
2023/05/23 08:03:00;;;;;;;1.50;0.90;;;16.70;98.20;;;;;;5056638;28;21835;-80
2023/05/23 08:05:26;;;;;;;1.50;0.97;;;16.70;98.20;;;;;;5052254;28;20478;-79
2023/05/23 08:07:54;;;;;;;1.50;0.90;;;16.80;98.20;;;;;;5052325;28;20526;-79
2023/05/23 08:10:21;;;;;;;1.50;0.90;;;16.80;98.20;;;;;;5049847;28;20542;-77
2023/05/23 08:12:48;;;;;;;1.50;1.00;;;16.80;98.20;;;;;;5052122;28;20458;-79
2023/05/23 08:15:14;;;;;;;1.50;1.00;;;16.80;98.20;;;;;;5054115;28;20520;-80
2023/05/23 08:17:41;;;;;;;1.50;0.90;;;16.80;98.20;;;;;;5050900;28;20462;-78
2023/05/23 08:20:11;;;;;;;1.50;1.00;;;16.70;98.20;;;;;;5052090;28;21111;-79
2023/05/23 08:22:38;;;;;;;1.50;1.00;;;16.60;98.20;;;;;;5054441;28;20457;-80
2023/05/23 08:25:06;;;;;;;1.50;0.90;;;16.50;98.20;;;;;;5058160;28;20576;-80
2023/05/23 08:27:34;;;;;;;1.47;0.90;;;16.50;98.20;;;;;;5054909;28;20544;-80
2023/05/23 08:30:01;;;;;;;1.50;1.00;;;16.50;98.20;;;;;;5054102;28;20467;-81
2023/05/23 08:32:28;;;;;;;1.50;0.90;;;16.50;98.20;;;;;;5055391;28;20454;-81
2023/05/23 08:34:55;;;;;;;1.47;0.90;;;16.50;98.20;;;;;;5052983;28;20734;-80
2023/05/23 08:37:24;;;;;;;1.50;0.90;;;16.60;98.20;;;;;;5056078;28;20569;-78
2023/05/23 08:39:51;;;;;;;1.50;0.90;;;16.60;98.20;;;;;;5050283;28;20458;-79
2023/05/23 08:42:18;;;;;;;1.50;1.00;;;16.60;98.20;;;;;;5052487;28;20450;-79
2023/05/23 08:44:45;;;;;;;1.47;0.90;;;16.60;98.20;;;;;;5050978;28;20454;-79
2023/05/23 08:47:17;;;;;;;2.17;1.97;;;16.60;98.20;;;;;;5056985;28;20675;-80
2023/05/23 08:49:45;;;;;;;1.50;0.90;;;16.50;98.20;;;;;;5052209;28;20485;-79
2023/05/23 08:52:13;;;;;;;1.47;0.90;;;16.40;98.20;;;;;;5047108;28;20892;-80
2023/05/23 08:54:42;;;;;;;1.50;0.90;;;16.30;98.20;;;;;;5050079;28;20867;-78
2023/05/23 08:57:10;;;;;;;1.50;1.00;;;16.30;98.20;;;;;;5048824;28;20572;-78
2023/05/23 08:59:39;;;;;;;1.50;0.90;;;16.20;98.20;;;;;;5058509;28;20461;-81
2023/05/23 09:02:11;;;;;;;1.50;0.97;;;16.10;98.20;;;;;;5051015;28;20921;-79
2023/05/23 09:04:38;;;;;;;1.50;0.90;;;16.10;98.20;;;;;;5054572;28;20488;-80
2023/05/23 09:07:06;;;;;;;1.50;0.90;;;16.10;98.20;;;;;;5062140;28;20473;-78
2023/05/23 09:09:33;;;;;;;1.50;1.00;;;16.10;98.20;;;;;;5062534;28;20457;-80
2023/05/23 09:12:02;;;;;;;1.50;1.00;;;16.00;98.20;;;;;;5057795;28;20477;-82
2023/05/23 09:14:30;;;;;;;1.50;1.00;;;16.00;98.20;;;;;;5056304;28;20508;-80
2023/05/23 09:17:01;;;;;;;1.50;0.93;;;16.10;98.20;;;;;;5057240;28;21185;-82
2023/05/23 09:19:28;;;;;;;1.50;1.20;;;16.10;98.20;;;;;;5056420;28;20455;-78
2023/05/23 09:21:55;;;;;;;1.50;1.00;;;16.10;98.20;;;;;;5057236;28;20466;-77
2023/05/23 09:24:22;;;;;;;1.47;0.90;;;16.10;98.20;;;;;;5053677;28;20454;-77
2023/05/23 09:26:49;;;;;;;1.50;1.20;;;16.00;98.20;;;;;;5057082;28;20485;-78
2023/05/23 09:29:21;;;;;;;1.50;1.00;;;16.00;98.20;;;;;;5052568;28;20545;-78
2023/05/23 09:31:49;;;;;;;1.43;0.90;;;16.10;98.20;;;;;;5049691;28;21080;-78
2023/05/23 09:34:15;;;;;;;1.50;1.00;;;16.20;98.20;;;;;;5057096;28;20472;-77
2023/05/23 09:36:44;;;;;;;2.03;1.20;;;16.20;98.20;;;;;;5054037;28;20493;-77
2023/05/23 09:39:12;;;;;;;2.63;2.43;;;16.30;98.20;;;;;;5052227;28;20585;-78
2023/05/23 09:41:39;;;;;;;1.50;0.90;;;16.30;98.20;;;;;;5052834;28;20458;-77
2023/05/23 09:44:09;;;;;;;1.47;1.00;;;16.40;98.20;;;;;;5060553;28;20476;-77
2023/05/23 09:46:38;;;;;;;1.50;1.00;;;16.50;98.20;;;;;;5057647;28;20494;-79
2023/05/23 09:49:15;;;;;;;1.50;0.90;;;16.40;98.20;;;;;;5049999;28;20531;-79
2023/05/23 09:51:42;;;;;;;1.47;1.00;;;16.50;98.20;;;;;;5054849;28;20461;-79
2023/05/23 09:54:09;;;;;;;1.50;1.00;;;16.50;98.20;;;;;;5054588;28;20455;-77
2023/05/23 09:56:42;;;;;;;1.50;0.90;;;16.70;98.20;;;;;;5055782;28;20481;-79
2023/05/23 09:59:13;;;;;;;1.50;1.00;;;16.90;98.20;;;;;;5056427;28;20952;-81
2023/05/23 10:01:44;;;;;;;1.47;0.90;;;17.00;98.20;;;;;;5055821;28;20616;-81
2023/05/23 10:04:12;;;;;;;1.50;1.00;;;17.00;98.20;;;;;;5056657;28;20968;-80
2023/05/23 10:06:45;;;;;;;1.50;1.00;;;17.00;98.20;;;;;;5053835;28;20897;-79
2023/05/23 10:09:17;;;;;;;1.50;1.10;;;16.80;98.20;;;;;;5054718;28;21212;-79
2023/05/23 10:12:19;;;;;;;1.50;0.90;;;16.70;98.20;;;;;;5053682;28;20944;-78
2023/05/23 10:14:51;;;;;;;1.70;0.90;;;16.60;98.20;;;;;;5052696;28;20465;-79
2023/05/23 10:17:25;;;;;;;1.50;0.90;;;16.40;98.20;;;;;;5052353;28;20490;-79
2023/05/23 10:19:58;;;;;;;1.50;0.90;;;16.30;98.20;;;;;;5058529;28;20516;-79
2023/05/23 10:22:26;;;;;;;1.50;1.10;;;16.20;98.20;;;;;;5052954;28;20462;-79
2023/05/23 10:24:53;;;;;;;1.70;1.50;;;16.10;98.20;;;;;;5054414;28;20598;-78
2023/05/23 10:27:20;;;;;;;1.50;0.90;;;16.00;98.20;;;;;;5053534;28;20501;-79
2023/05/23 10:29:48;;;;;;;1.50;0.90;;;16.00;98.20;;;;;;5054214;28;20464;-78
2023/05/23 10:32:15;;;;;;;1.50;1.00;;;16.00;98.20;;;;;;5053567;28;20551;-78
2023/05/23 10:34:54;;;;;;;1.50;1.00;;;15.90;98.20;;;;;;5051011;28;20968;-78
2023/05/23 10:37:26;;;;;;;1.47;0.90;;;15.80;98.20;;;;;;5053612;28;20482;-79
2023/05/23 10:40:00;;;;;;;1.60;1.37;;;15.80;98.20;;;;;;5056153;28;20462;-79
2023/05/23 10:42:35;;;;;;;1.50;1.00;;;15.80;98.20;;;;;;5053496;28;20458;-79
2023/05/23 10:45:15;;;;;;;1.43;0.90;;;15.80;98.20;;;;;;5049940;28;20481;-80
2023/05/23 10:47:42;;;;;;;1.47;0.90;;;15.80;98.20;;;;;;5052595;28;20451;-79
2023/05/23 10:50:14;;;;;;;1.47;0.90;;;15.70;98.20;;;;;;5054186;28;20466;-79
2023/05/23 10:52:42;;;;;;;2.60;2.40;;;15.70;98.20;;;;;;5049399;28;20469;-78
2023/05/23 10:55:17;;;;;;;1.43;1.00;;;15.80;98.20;;;;;;5056370;28;20506;-77
2023/05/23 10:57:44;;;;;;;1.50;1.00;;;15.90;98.20;;;;;;5051600;28;20481;-79
2023/05/23 11:00:15;;;;;;;1.43;0.90;;;15.90;98.20;;;;;;5052015;28;20832;-79
2023/05/23 11:02:54;;;;;;;1.47;0.90;;;16.00;98.20;;;;;;5053267;28;20511;-80
2023/05/23 11:05:26;;;;;;;1.50;1.00;;;16.10;98.20;;;;;;5053403;28;20481;-79
2023/05/23 11:08:07;;;;;;;1.47;0.90;;;16.30;98.20;;;;;;5055199;28;20463;-79
2023/05/23 11:10:52;;;;;;;1.50;0.90;;;16.60;98.20;;;;;;5054696;28;20941;-79
2023/05/23 11:13:20;;;;;;;1.50;0.90;;;16.90;98.20;;;;;;5052068;28;20973;-78
2023/05/23 11:15:47;;;;;;;1.50;0.90;;;17.30;98.20;;;;;;5051004;28;20482;-79
2023/05/23 11:18:22;;;;;;;1.50;0.90;;;17.60;98.20;;;;;;5059508;28;20589;-79
2023/05/23 11:20:53;;;;;;;1.50;0.90;;;17.90;98.20;;;;;;5053998;28;20549;-79
2023/05/23 11:23:21;;;;;;;1.50;0.90;;;18.10;97.80;;;;;;5052545;28;20470;-81
2023/05/23 11:25:50;;;;;;;1.50;0.90;;;18.40;96.70;;;;;;5051106;28;20486;-80
2023/05/23 11:28:17;;;;;;;1.50;0.90;;;18.60;96.70;;;;;;5054004;28;20459;-79
2023/05/23 11:30:47;;;;;;;1.50;0.90;;;18.70;96.40;;;;;;5053812;28;20728;-80
2023/05/23 11:33:15;;;;;;;1.50;0.90;;;18.60;96.70;;;;;;5055094;28;20856;-79
2023/05/23 11:35:43;;;;;;;1.50;0.90;;;18.60;97.40;;;;;;5064650;28;20491;-80
2023/05/23 11:38:11;;;;;;;1.83;1.43;;;18.50;96.70;;;;;;5055235;28;20481;-80
2023/05/23 11:40:39;;;;;;;1.50;0.90;;;18.40;97.90;;;;;;5061044;28;20838;-80
2023/05/23 11:43:08;;;;;;;1.50;0.90;;;18.40;97.60;;;;;;5054670;28;20500;-79
2023/05/23 11:45:36;;;;;;;1.50;0.90;;;18.50;97.40;;;;;;5056648;28;20569;-79
2023/05/23 11:48:10;;;;;;;1.50;0.90;;;18.50;96.60;;;;;;5060291;28;20536;-79
2023/05/23 11:50:44;;;;;;;1.50;1.00;;;18.50;96.30;;;;;;5056099;28;20485;-79
2023/05/23 11:53:15;;;;;;;1.50;0.90;;;18.40;95.90;;;;;;5058375;28;20453;-79
2023/05/23 11:55:49;;;;;;;1.50;0.90;;;18.40;96.40;;;;;;5070063;28;20622;-79
2023/05/23 11:58:16;;;;;;;1.50;0.90;;;18.30;96.40;;;;;;5067619;28;20485;-80
2023/05/23 12:00:46;;;;;;;1.50;0.90;;;18.20;97.20;;;;;;5070048;28;20442;-81
2023/05/23 12:03:13;;;;;;;1.47;0.90;;;18.10;95.80;;;;;;5055623;28;20470;-81
2023/05/23 12:05:42;;;;;;;1.50;0.90;;;18.10;97.30;;;;;;5045295;28;20525;-81
2023/05/23 12:08:13;;;;;;;1.43;0.90;;;18.10;95.80;;;;;;5050099;28;20833;-81
2023/05/23 12:10:49;;;;;;;1.47;0.90;;;18.10;95.50;;;;;;5052155;28;20527;-80
2023/05/23 12:13:16;;;;;;;1.50;0.90;;;18.20;95.00;;;;;;5049034;28;20497;-82
2023/05/23 12:15:43;;;;;;;1.50;0.90;;;18.20;94.80;;;;;;5052479;28;20481;-80
2023/05/23 12:18:11;;;;;;;1.50;0.90;;;18.20;95.30;;;;;;5051529;28;20487;-79
2023/05/23 12:20:38;;;;;;;1.80;1.37;;;18.40;95.50;;;;;;5048007;28;20457;-80
2023/05/23 12:23:06;;;;;;;1.50;0.90;;;18.40;95.10;;;;;;5052335;28;20856;-79
2023/05/23 12:25:41;;;;;;;1.47;0.90;;;18.40;95.40;;;;;;5053060;28;20888;-79
2023/05/23 12:28:09;;;;;;;1.47;0.90;;;18.30;95.20;;;;;;5047799;28;20538;-80
2023/05/23 12:30:42;;;;;;;1.50;1.10;;;18.20;95.30;;;;;;5050037;28;20468;-79
2023/05/23 12:33:09;;;;;;;1.50;0.93;;;18.10;96.10;;;;;;5053948;28;20513;-79
2023/05/23 12:35:36;;;;;;;1.47;0.90;;;18.10;94.90;;;;;;5055360;28;20484;-79
2023/05/23 12:38:05;;;;;;;1.40;0.90;;;18.10;95.50;;;;;;5052291;28;20896;-79
2023/05/23 12:40:32;;;;;;;1.50;0.93;;;18.30;95.40;;;;;;5056717;28;20461;-80
2023/05/23 12:43:01;;;;;;;1.47;0.90;;;18.40;95.00;;;;;;5052475;28;20479;-79
2023/05/23 12:45:32;;;;;;;1.47;0.90;;;18.50;95.10;;;;;;5051670;28;20524;-79
2023/05/23 12:47:59;;;;;;;1.50;0.93;;;18.60;92.90;;;;;;5053799;28;20972;-80
2023/05/23 12:50:26;;;;;;;1.50;0.90;;;18.70;92.60;;;;;;5052622;28;20458;-79
2023/05/23 12:52:53;;;;;;;1.50;0.90;;;18.90;93.70;;;;;;5051667;28;20466;-78